Time;durP1;ratioP1;P1;durP2;ratioP2;P2;SDS_P1;SDS_P2;PMS_P1;PMS_P2;Temp;Humidity;BMP_temperature;BMP_pressure;BME280_temperature;BME280_humidity;BME280_pressure;Samples;Min_cycle;Max_cycle;Signal;HPM_P1;HPM_P2
2021/01/31 00:02:02;;;;;;;;;;;;;;;;;;;;;
2021/01/31 00:04:31;;;;;;;14.23;8.60;;;-0.20;82.30;;;;;;5016560;28;20034;-96
2021/01/31 00:10:01;;;;;;;13.15;8.30;;;-0.40;82.20;;;;;;5036586;26;20052;-96
2021/01/31 00:12:30;;;;;;;12.23;7.65;;;-0.30;82.30;;;;;;5022265;28;20041;-95
2021/01/31 00:15:05;;;;;;;12.70;8.25;;;-0.30;82.20;;;;;;5008042;28;20025;-96
2021/01/31 00:17:48;;;;;;;10.35;7.25;;;-0.30;82.00;;;;;;5008206;28;20026;-95
2021/01/31 00:20:22;;;;;;;14.13;8.75;;;-0.20;82.00;;;;;;5013962;28;20493;-96
2021/01/31 00:23:02;;;;;;;16.08;10.45;;;-0.40;81.80;;;;;;5036363;28;20022;-95
2021/01/31 00:25:37;;;;;;;14.55;9.18;;;-0.50;81.90;;;;;;5031296;28;20040;-96
2021/01/31 00:28:13;;;;;;;14.30;9.20;;;-0.40;82.10;;;;;;5034436;28;20034;-95
2021/01/31 00:30:42;;;;;;;17.90;11.55;;;-0.40;82.10;;;;;;5038321;28;20033;-95
2021/01/31 00:33:17;;;;;;;12.77;8.38;;;-0.50;82.10;;;;;;5002813;28;20025;-96
2021/01/31 00:35:53;;;;;;;13.80;8.20;;;-0.60;82.30;;;;;;5017295;28;20383;-96
2021/01/31 00:38:23;;;;;;;11.48;7.65;;;-0.60;82.20;;;;;;5026874;28;20038;-94
2021/01/31 00:40:56;;;;;;;18.23;11.85;;;-0.60;82.20;;;;;;5020729;28;20037;-95
2021/01/31 00:43:25;;;;;;;18.52;11.90;;;-0.60;82.30;;;;;;5025399;28;20466;-95
2021/01/31 00:45:52;;;;;;;13.90;8.90;;;-0.70;82.40;;;;;;5017938;28;20022;-94
2021/01/31 00:48:18;;;;;;;13.73;8.75;;;-0.70;82.50;;;;;;4994212;28;20081;-95
2021/01/31 00:50:44;;;;;;;13.80;8.73;;;-0.70;82.50;;;;;;5002713;28;20022;-94
2021/01/31 00:53:10;;;;;;;12.82;8.30;;;-0.70;82.50;;;;;;5011830;28;20136;-95
2021/01/31 00:55:36;;;;;;;18.83;11.98;;;-0.70;82.50;;;;;;5015418;28;20104;-96
2021/01/31 00:58:04;;;;;;;15.63;9.80;;;-0.70;82.70;;;;;;5017046;28;20051;-95
2021/01/31 01:00:36;;;;;;;14.50;9.32;;;-0.80;82.70;;;;;;5012760;22;20591;-95
2021/01/31 01:03:05;;;;;;;15.93;10.20;;;-0.70;82.70;;;;;;4994199;28;20034;-95
2021/01/31 01:05:32;;;;;;;16.92;10.82;;;-0.70;82.80;;;;;;4993473;28;20031;-96
2021/01/31 01:07:58;;;;;;;16.10;10.10;;;-0.80;82.80;;;;;;4995065;28;20026;-95
2021/01/31 01:10:27;;;;;;;20.67;12.90;;;-0.80;82.80;;;;;;4995737;28;20030;-95
2021/01/31 01:12:53;;;;;;;14.77;9.55;;;-0.80;83.00;;;;;;4997265;28;20044;-95
2021/01/31 01:15:21;;;;;;;11.10;7.25;;;-0.80;83.00;;;;;;4998224;28;20483;-94
2021/01/31 01:17:47;;;;;;;18.10;11.70;;;-0.70;83.00;;;;;;4998684;28;20589;-94
2021/01/31 01:20:21;;;;;;;16.15;9.45;;;-0.80;82.90;;;;;;4998512;28;20057;-96
2021/01/31 01:22:47;;;;;;;17.48;11.30;;;-0.80;82.90;;;;;;4995709;28;20025;-96
2021/01/31 01:25:25;;;;;;;13.35;8.93;;;-0.80;82.90;;;;;;4997474;28;20026;-96
2021/01/31 01:27:57;;;;;;;10.77;7.00;;;-0.80;82.90;;;;;;4995201;28;20022;-96
2021/01/31 01:30:32;;;;;;;8.80;5.93;;;-0.80;82.90;;;;;;4979584;28;20030;-95
2021/01/31 01:33:01;;;;;;;13.80;8.85;;;-0.70;82.90;;;;;;4997626;28;20031;-96
2021/01/31 01:35:28;;;;;;;13.75;9.23;;;-0.70;82.80;;;;;;4985258;28;20030;-96
2021/01/31 01:37:56;;;;;;;13.35;8.70;;;-0.70;82.80;;;;;;4997408;28;20065;-96
2021/01/31 01:40:34;;;;;;;17.98;11.48;;;-0.70;82.70;;;;;;5002297;28;20019;-96
2021/01/31 01:43:00;;;;;;;12.57;8.23;;;-0.70;82.70;;;;;;5002600;28;20018;-96
2021/01/31 01:45:27;;;;;;;12.18;7.85;;;-0.80;82.70;;;;;;5007989;28;20014;-96
2021/01/31 01:48:10;;;;;;;12.38;7.88;;;-0.70;82.60;;;;;;5017716;28;20018;-96
2021/01/31 01:50:53;;;;;;;13.95;9.15;;;-0.70;82.50;;;;;;4995494;28;20043;-96
2021/01/31 01:53:23;;;;;;;17.30;11.20;;;-0.70;82.50;;;;;;4989973;28;20070;-96
2021/01/31 01:55:58;;;;;;;12.50;7.95;;;-0.80;82.40;;;;;;5002982;28;20026;-96
2021/01/31 01:58:24;;;;;;;10.60;7.28;;;-0.80;83.20;;;;;;5002799;28;20031;-96
2021/01/31 02:00:52;;;;;;;10.98;6.80;;;-0.80;82.50;;;;;;5002965;28;20038;-96
2021/01/31 02:19:20;;;;;;;11.10;6.95;;;-0.90;82.20;;;;;;5398220;22;20026;-96
2021/01/31 02:34:53;;;;;;;11.57;7.05;;;-1.00;82.60;;;;;;5000411;28;20058;-95
2021/01/31 02:37:39;;;;;;;12.68;8.13;;;-1.00;82.70;;;;;;4983519;28;20022;-96
2021/01/31 02:40:31;;;;;;;11.13;7.00;;;-1.10;82.60;;;;;;5000250;28;20037;-96
2021/01/31 02:43:15;;;;;;;13.25;8.55;;;-1.00;82.60;;;;;;4974809;28;20041;-94
2021/01/31 02:45:46;;;;;;;13.13;7.80;;;-1.00;82.50;;;;;;4976854;28;20118;-94
2021/01/31 02:48:26;;;;;;;12.95;7.72;;;-1.00;82.60;;;;;;4974894;28;20034;-96
2021/01/31 02:50:53;;;;;;;13.05;8.40;;;-1.00;82.60;;;;;;4974992;28;20053;-94
2021/01/31 02:53:30;;;;;;;10.73;6.82;;;-1.00;82.60;;;;;;4973740;28;20038;-95
2021/01/31 02:56:18;;;;;;;11.38;7.55;;;-1.00;82.60;;;;;;4952304;28;20432;-94
2021/01/31 02:58:55;;;;;;;8.05;5.38;;;-1.10;82.60;;;;;;4967154;28;20101;-95
2021/01/31 03:01:47;;;;;;;14.55;9.13;;;-1.00;82.60;;;;;;4974064;28;20574;-95
2021/01/31 03:04:39;;;;;;;12.48;8.13;;;-1.10;82.70;;;;;;4972680;28;20042;-95
2021/01/31 03:07:12;;;;;;;12.27;7.43;;;-1.10;82.70;;;;;;4974656;28;20015;-96
2021/01/31 03:10:06;;;;;;;10.90;7.18;;;-1.10;82.70;;;;;;4974361;28;20086;-94
2021/01/31 03:12:49;;;;;;;11.15;7.28;;;-1.10;82.70;;;;;;4960605;28;20034;-96
2021/01/31 03:15:19;;;;;;;14.05;8.73;;;-1.10;82.60;;;;;;4972547;28;20085;-95
2021/01/31 03:18:06;;;;;;;10.85;7.03;;;-1.10;82.60;;;;;;4972557;28;20034;-95
2021/01/31 03:20:37;;;;;;;14.77;9.15;;;-1.10;82.60;;;;;;4967998;28;20031;-94
2021/01/31 03:23:35;;;;;;;17.63;10.77;;;-1.10;82.50;;;;;;4955416;28;20106;-94
2021/01/31 03:26:25;;;;;;;15.88;10.50;;;-1.20;82.70;;;;;;4976082;28;20042;-95
2021/01/31 03:28:52;;;;;;;12.98;8.25;;;-1.10;82.90;;;;;;4977898;28;20011;-95
2021/01/31 03:31:22;;;;;;;12.40;7.95;;;-1.20;82.80;;;;;;4991689;28;20051;-96
2021/01/31 03:33:54;;;;;;;14.07;8.35;;;-1.20;82.80;;;;;;4993437;28;20071;-94
2021/01/31 03:36:23;;;;;;;10.23;5.78;;;-1.10;82.80;;;;;;4956670;28;20050;-94
2021/01/31 03:38:55;;;;;;;9.40;6.32;;;-1.10;82.70;;;;;;4973320;28;20133;-95
2021/01/31 03:41:23;;;;;;;9.80;6.45;;;-1.10;82.70;;;;;;4955638;28;20027;-94
2021/01/31 03:43:49;;;;;;;10.75;7.00;;;-1.10;82.70;;;;;;4954972;28;20027;-95
2021/01/31 03:46:18;;;;;;;15.13;9.70;;;-1.10;82.60;;;;;;4973361;28;20058;-94
2021/01/31 03:49:07;;;;;;;11.15;6.85;;;-1.10;82.60;;;;;;4974523;28;20023;-93
2021/01/31 03:51:34;;;;;;;10.00;6.70;;;-1.10;82.70;;;;;;4957677;28;20062;-94
2021/01/31 03:54:00;;;;;;;9.52;6.47;;;-1.10;82.70;;;;;;4975548;28;20066;-93
2021/01/31 03:56:31;;;;;;;11.13;6.63;;;-1.10;82.60;;;;;;4972171;28;20030;-92
2021/01/31 03:58:58;;;;;;;9.95;6.47;;;-1.10;82.50;;;;;;4972136;28;20023;-92
2021/01/31 04:01:26;;;;;;;8.63;5.50;;;-1.10;82.50;;;;;;4974032;28;20042;-91
2021/01/31 04:04:04;;;;;;;11.00;6.97;;;-1.10;82.60;;;;;;4958966;28;20026;-93
2021/01/31 04:06:34;;;;;;;11.63;7.38;;;-1.10;82.60;;;;;;4976145;28;20034;-93
2021/01/31 04:08:59;;;;;;;13.07;8.23;;;-1.10;82.60;;;;;;4976194;28;20023;-93
2021/01/31 04:11:39;;;;;;;10.85;7.35;;;-1.10;82.60;;;;;;4976703;28;20037;-94
2021/01/31 04:14:17;;;;;;;11.57;6.97;;;-1.20;82.60;;;;;;4960112;28;20544;-95
2021/01/31 04:16:45;;;;;;;17.40;11.35;;;-1.20;82.60;;;;;;4981463;28;20035;-93
2021/01/31 04:19:12;;;;;;;12.50;7.70;;;-1.20;82.60;;;;;;4980803;28;20034;-96
2021/01/31 04:21:38;;;;;;;12.25;6.93;;;-1.20;82.70;;;;;;4976786;28;20027;-96
2021/01/31 04:24:04;;;;;;;11.23;7.57;;;-1.20;82.70;;;;;;4977000;28;20030;-96
2021/01/31 04:26:30;;;;;;;10.23;6.80;;;-1.30;82.70;;;;;;4977086;28;20046;-96
2021/01/31 04:28:56;;;;;;;11.90;7.03;;;-1.20;82.70;;;;;;4977731;28;20074;-96
2021/01/31 04:31:22;;;;;;;14.90;9.63;;;-1.30;82.70;;;;;;4977312;28;20027;-94
2021/01/31 04:33:47;;;;;;;11.90;7.55;;;-1.30;82.80;;;;;;4974355;28;20048;-92
2021/01/31 04:36:14;;;;;;;16.27;10.45;;;-1.30;82.80;;;;;;4958351;28;20041;-92
2021/01/31 04:38:40;;;;;;;11.65;7.72;;;-1.30;82.90;;;;;;4976327;28;20050;-92
2021/01/31 04:41:05;;;;;;;12.13;8.00;;;-1.30;82.90;;;;;;4976888;28;20023;-92
2021/01/31 04:43:31;;;;;;;12.07;8.10;;;-1.30;83.00;;;;;;4976456;28;20545;-93
2021/01/31 04:45:58;;;;;;;14.35;9.13;;;-1.30;82.90;;;;;;4976539;28;20488;-93
2021/01/31 04:48:48;;;;;;;12.25;7.70;;;-1.30;83.00;;;;;;4975890;28;20105;-91
2021/01/31 04:51:17;;;;;;;14.95;8.93;;;-1.30;83.10;;;;;;4975752;28;20077;-93
2021/01/31 04:54:12;;;;;;;13.50;8.45;;;-1.30;83.00;;;;;;4976563;28;20162;-95
2021/01/31 04:57:36;;;;;;;11.25;7.30;;;-1.30;83.00;;;;;;4978681;28;20026;-96
2021/01/31 05:00:05;;;;;;;12.25;7.40;;;-1.30;83.10;;;;;;4925659;28;20059;-95
2021/01/31 05:02:31;;;;;;;12.35;8.18;;;-1.30;83.00;;;;;;4977562;28;20106;-96
2021/01/31 05:04:59;;;;;;;16.25;10.48;;;-1.30;83.10;;;;;;4977823;28;20113;-94
2021/01/31 05:07:30;;;;;;;15.63;9.85;;;-1.30;83.20;;;;;;4958671;28;20173;-94
2021/01/31 05:09:56;;;;;;;17.20;9.45;;;-1.30;83.20;;;;;;4976389;28;20023;-94
2021/01/31 05:12:30;;;;;;;15.50;9.45;;;-1.40;83.30;;;;;;4979456;28;20034;-95
2021/01/31 05:15:19;;;;;;;14.90;9.02;;;-1.40;83.30;;;;;;4989522;28;20065;-95
2021/01/31 05:17:46;;;;;;;14.43;8.90;;;-1.40;83.30;;;;;;4998972;28;20091;-95
2021/01/31 05:20:14;;;;;;;10.50;6.90;;;-1.40;83.30;;;;;;4964610;28;20090;-95
2021/01/31 05:22:49;;;;;;;14.80;8.95;;;-1.40;83.20;;;;;;4958492;28;20471;-94
2021/01/31 05:25:18;;;;;;;15.85;9.32;;;-1.40;83.30;;;;;;4974591;28;20034;-96
2021/01/31 05:27:45;;;;;;;17.25;10.07;;;-1.40;83.20;;;;;;4957979;28;20519;-96
2021/01/31 05:30:12;;;;;;;14.52;9.65;;;-1.40;83.20;;;;;;5008422;23;20071;-96
2021/01/31 05:33:05;;;;;;;16.77;10.70;;;-1.40;83.30;;;;;;5016067;28;20046;-96
2021/01/31 05:35:37;;;;;;;14.98;8.93;;;-1.50;83.50;;;;;;5009076;28;20060;-96
2021/01/31 05:38:04;;;;;;;17.70;10.90;;;-1.50;83.60;;;;;;5028336;28;20048;-96
2021/01/31 05:40:43;;;;;;;14.73;9.07;;;-1.50;83.70;;;;;;5035104;28;20053;-96
2021/01/31 05:43:25;;;;;;;13.13;8.88;;;-1.50;83.80;;;;;;5023619;28;20037;-96
2021/01/31 05:45:51;;;;;;;13.95;8.60;;;-1.40;83.90;;;;;;5017386;28;20029;-96
2021/01/31 05:48:47;;;;;;;17.45;11.18;;;-1.50;83.70;;;;;;5015582;28;20030;-94
2021/01/31 05:51:32;;;;;;;11.15;7.40;;;-1.50;83.70;;;;;;5001071;28;20036;-93
2021/01/31 05:54:16;;;;;;;17.80;11.43;;;-1.40;83.80;;;;;;5005426;28;20033;-96
2021/01/31 05:56:44;;;;;;;15.30;9.40;;;-1.50;83.70;;;;;;5014420;28;20022;-96
2021/01/31 05:59:11;;;;;;;14.18;9.13;;;-1.40;83.70;;;;;;5014186;28;20109;-95
2021/01/31 06:02:00;;;;;;;13.88;8.43;;;-1.40;83.60;;;;;;5013284;28;20018;-96
2021/01/31 06:04:26;;;;;;;14.10;8.90;;;-1.40;83.50;;;;;;5013736;28;20471;-94
2021/01/31 06:07:02;;;;;;;12.82;8.00;;;-1.40;83.40;;;;;;5016417;28;20037;-95
2021/01/31 06:09:28;;;;;;;14.68;9.27;;;-1.40;83.40;;;;;;5017198;28;20030;-94
2021/01/31 06:12:22;;;;;;;17.85;11.38;;;-1.40;83.40;;;;;;5016637;28;20032;-96
2021/01/31 06:15:33;;;;;;;13.90;9.15;;;-1.40;83.40;;;;;;5017875;28;20040;-96
2021/01/31 06:18:03;;;;;;;16.55;10.30;;;-1.50;83.40;;;;;;4999787;28;20041;-96
2021/01/31 06:20:40;;;;;;;14.05;8.85;;;-1.50;83.40;;;;;;5032464;28;20076;-96
2021/01/31 06:25:41;;;;;;;10.93;7.25;;;-1.50;83.50;;;;;;5140053;22;20061;-96
2021/01/31 06:28:09;;;;;;;14.85;9.23;;;-1.50;83.40;;;;;;4987991;28;20129;-96
2021/01/31 06:31:02;;;;;;;13.02;7.90;;;-1.50;83.30;;;;;;5007688;28;20034;-96
2021/01/31 06:33:28;;;;;;;10.55;6.97;;;-1.50;83.40;;;;;;5015708;28;20026;-96
2021/01/31 06:46:42;;;;;;;13.07;7.85;;;-1.40;83.10;;;;;;5002611;28;20065;-96
2021/01/31 06:49:27;;;;;;;9.30;6.13;;;-1.50;83.10;;;;;;4989413;28;20023;-96
2021/01/31 06:52:11;;;;;;;9.93;6.63;;;-1.50;83.10;;;;;;4989910;28;20531;-96
2021/01/31 06:54:36;;;;;;;13.48;8.00;;;-1.50;83.00;;;;;;5000883;28;20132;-95
2021/01/31 06:57:17;;;;;;;10.70;6.65;;;-1.50;83.00;;;;;;5009298;28;20023;-96
2021/01/31 07:10:50;;;;;;;8.82;6.10;;;-1.60;83.20;;;;;;5187150;22;20062;-96
2021/01/31 07:13:32;;;;;;;14.38;8.30;;;-1.70;83.00;;;;;;5022692;28;20033;-96
2021/01/31 07:16:10;;;;;;;12.57;8.07;;;-1.70;83.00;;;;;;5013143;28;20121;-93
2021/01/31 07:18:43;;;;;;;10.82;7.10;;;-1.70;83.10;;;;;;5002168;28;20026;-95
2021/01/31 07:21:16;;;;;;;12.70;7.70;;;-1.70;83.10;;;;;;5013230;28;20160;-94
2021/01/31 07:23:45;;;;;;;15.38;9.18;;;-1.80;83.10;;;;;;5011123;28;20037;-94
2021/01/31 07:26:40;;;;;;;19.70;11.70;;;-1.80;83.10;;;;;;5014050;28;20018;-95
2021/01/31 07:29:12;;;;;;;17.00;10.88;;;-1.80;83.20;;;;;;5012237;28;20511;-94
2021/01/31 07:31:45;;;;;;;17.80;10.43;;;-1.80;83.30;;;;;;5012605;28;20053;-96
2021/01/31 07:34:22;;;;;;;17.98;10.38;;;-1.90;83.30;;;;;;5012429;28;20099;-96
2021/01/31 07:37:17;;;;;;;15.48;9.15;;;-1.80;83.40;;;;;;5015099;28;20014;-95
2021/01/31 07:39:43;;;;;;;16.27;10.27;;;-1.90;83.40;;;;;;5016042;28;20029;-94
2021/01/31 07:42:10;;;;;;;19.98;12.25;;;-1.90;83.50;;;;;;5021904;28;20136;-95
2021/01/31 07:58:37;;;;;;;15.48;9.73;;;-1.70;83.60;;;;;;5652939;22;20061;-95
2021/01/31 08:01:13;;;;;;;15.98;9.38;;;-1.60;83.60;;;;;;5024508;28;20033;-95
2021/01/31 08:04:17;;;;;;;16.10;9.90;;;-1.60;83.60;;;;;;5021568;28;20025;-96
2021/01/31 08:22:12;;;;;;;18.17;10.70;;;-1.30;82.90;;;;;;5049588;28;20056;-95
2021/01/31 08:25:26;;;;;;;9.98;5.72;;;-1.20;82.90;;;;;;5295924;22;20076;-96
2021/01/31 08:28:02;;;;;;;15.30;9.10;;;-1.10;82.80;;;;;;5033784;22;20047;-96
2021/01/31 08:33:43;;;;;;;17.45;11.13;;;-1.00;82.50;;;;;;5750248;22;20058;-94
2021/01/31 08:36:26;;;;;;;17.45;10.93;;;-0.90;82.10;;;;;;5331335;22;20123;-96
2021/01/31 08:39:02;;;;;;;17.38;10.60;;;-1.10;81.80;;;;;;4994714;28;20065;-94
2021/01/31 08:41:47;;;;;;;16.15;10.32;;;-1.10;81.80;;;;;;5130852;22;20029;-87
2021/01/31 08:44:16;;;;;;;17.00;10.68;;;-1.10;81.90;;;;;;5074530;22;20052;-94
2021/01/31 08:52:06;;;;;;;17.63;11.23;;;-1.00;82.30;;;;;;5262189;22;20053;-95
2021/01/31 08:54:32;;;;;;;16.65;10.90;;;-1.00;81.60;;;;;;5017473;28;20034;-92
2021/01/31 08:57:01;;;;;;;16.65;10.95;;;-0.90;81.60;;;;;;5008041;28;20060;-92
2021/01/31 08:59:36;;;;;;;18.23;11.90;;;-0.90;81.40;;;;;;5017240;28;20026;-95
2021/01/31 09:02:19;;;;;;;17.70;11.13;;;-0.90;81.30;;;;;;5015936;28;20105;-96
2021/01/31 09:04:46;;;;;;;17.13;10.93;;;-0.90;81.20;;;;;;5022914;28;20029;-96
2021/01/31 09:09:52;;;;;;;19.00;11.65;;;-0.80;81.20;;;;;;4997127;28;20045;-96
2021/01/31 09:12:21;;;;;;;16.00;10.23;;;-0.80;81.00;;;;;;5121940;22;20195;-95
2021/01/31 09:14:47;;;;;;;20.13;12.25;;;-0.70;80.90;;;;;;5013510;28;20507;-94
2021/01/31 09:17:26;;;;;;;19.33;12.02;;;-0.70;80.60;;;;;;5017346;28;20463;-95
2021/01/31 09:20:11;;;;;;;14.52;9.85;;;-0.70;80.50;;;;;;4994469;28;20037;-94
2021/01/31 09:22:44;;;;;;;18.13;11.40;;;-0.60;80.50;;;;;;5006117;28;20069;-95
2021/01/31 09:25:11;;;;;;;16.52;10.48;;;-0.60;80.30;;;;;;5003698;28;20026;-95
2021/01/31 09:28:15;;;;;;;13.65;8.80;;;-0.60;80.40;;;;;;5010637;28;20034;-93
2021/01/31 09:30:41;;;;;;;17.27;10.70;;;-0.50;80.20;;;;;;5007748;28;20030;-95
2021/01/31 09:33:37;;;;;;;18.65;11.13;;;-0.50;79.90;;;;;;5013956;28;20037;-93
2021/01/31 09:36:23;;;;;;;17.75;11.18;;;-0.50;79.90;;;;;;5003562;28;20438;-90
2021/01/31 09:38:50;;;;;;;14.82;10.00;;;-0.50;79.80;;;;;;5006855;28;20042;-92
2021/01/31 09:41:19;;;;;;;15.52;10.45;;;-0.50;79.80;;;;;;4999030;28;20053;-92
2021/01/31 09:43:49;;;;;;;15.38;9.35;;;-0.50;79.80;;;;;;5017634;28;20052;-96
2021/01/31 09:46:16;;;;;;;16.63;10.68;;;-0.40;80.00;;;;;;5016746;28;20018;-93
2021/01/31 09:48:43;;;;;;;16.90;10.55;;;-0.40;79.80;;;;;;5007662;28;20033;-92
2021/01/31 09:51:25;;;;;;;18.20;11.32;;;-0.40;79.50;;;;;;5015283;28;20034;-92
2021/01/31 09:53:51;;;;;;;19.17;12.10;;;-0.40;79.30;;;;;;5025779;28;20129;-90
2021/01/31 09:56:38;;;;;;;16.35;10.85;;;-0.40;79.20;;;;;;5017087;28;20046;-91
2021/01/31 09:59:31;;;;;;;14.38;9.43;;;-0.40;79.30;;;;;;5018670;28;20021;-91
2021/01/31 10:02:05;;;;;;;;;;;-0.30;79.30;;;;;;5023491;28;20041;-92
2021/01/31 10:04:32;;;;;;;14.60;9.23;;;-0.20;79.40;;;;;;5003466;28;20425;-93
2021/01/31 10:07:05;;;;;;;15.10;9.18;;;-0.20;79.20;;;;;;5001306;28;20060;-93
2021/01/31 10:09:33;;;;;;;;;;;-0.10;79.20;;;;;;4993685;28;20116;-92
2021/01/31 10:12:15;;;;;;;10.00;6.55;;;0.00;79.10;;;;;;4996936;28;20294;-91
2021/01/31 10:14:43;;;;;;;15.18;9.57;;;0.20;79.20;;;;;;5023512;28;20033;-90
2021/01/31 10:21:13;;;;;;;14.32;9.20;;;0.20;78.40;;;;;;5040595;28;20068;-92
2021/01/31 10:24:36;;;;;;;14.85;9.10;;;0.20;78.30;;;;;;5003479;28;20034;-90
2021/01/31 10:27:44;;;;;;;15.40;10.05;;;0.20;78.30;;;;;;5032752;28;20034;-92
2021/01/31 10:30:48;;;;;;;13.65;8.65;;;0.20;77.90;;;;;;5035001;28;20029;-92
2021/01/31 10:33:41;;;;;;;16.55;10.95;;;0.20;77.90;;;;;;5038076;28;20033;-91
2021/01/31 10:36:58;;;;;;;17.58;11.00;;;0.20;77.70;;;;;;5019725;28;20469;-93
2021/01/31 10:54:07;;;;;;;14.05;8.93;;;0.40;76.80;;;;;;5345219;22;20410;-92
2021/01/31 10:57:14;;;;;;;12.82;8.52;;;0.40;77.10;;;;;;5056358;22;20049;-93
2021/01/31 11:05:52;;;;;;;16.08;10.50;;;0.70;76.90;;;;;;5199326;22;20025;-93
2021/01/31 11:08:38;;;;;;;14.65;9.80;;;0.70;76.60;;;;;;4998230;28;20087;-93
2021/01/31 11:32:39;;;;;;;16.25;10.75;;;0.90;76.30;;;;;;4994417;28;20049;-92
2021/01/31 11:35:24;;;;;;;14.35;9.30;;;0.90;75.30;;;;;;4999652;28;20554;-93
2021/01/31 11:38:02;;;;;;;13.90;8.75;;;0.90;75.50;;;;;;5010150;28;20027;-95
2021/01/31 11:40:38;;;;;;;15.02;10.25;;;1.00;75.60;;;;;;5001277;28;20042;-93
2021/01/31 11:50:13;;;;;;;12.77;8.20;;;1.30;75.40;;;;;;5190838;22;20049;-96
2021/01/31 11:52:42;;;;;;;15.95;9.35;;;1.40;75.00;;;;;;4962388;28;20039;-96
2021/01/31 11:55:08;;;;;;;13.70;9.48;;;1.40;74.50;;;;;;4947277;28;20046;-95
2021/01/31 11:57:37;;;;;;;15.60;9.50;;;1.40;74.30;;;;;;5017111;28;20474;-95
2021/01/31 12:00:05;;;;;;;15.98;9.73;;;1.40;73.90;;;;;;5024987;28;20034;-96
2021/01/31 12:02:31;;;;;;;15.10;9.68;;;1.50;73.90;;;;;;5019665;22;20098;-94
2021/01/31 12:04:56;;;;;;;12.25;8.52;;;1.50;73.70;;;;;;5063602;28;20458;-96
2021/01/31 12:07:24;;;;;;;12.80;8.73;;;1.60;73.60;;;;;;5063563;28;20060;-94
2021/01/31 12:09:49;;;;;;;16.08;10.38;;;1.70;74.00;;;;;;5073055;28;20081;-94
2021/01/31 12:12:15;;;;;;;15.00;10.13;;;2.10;74.10;;;;;;5064441;28;20041;-95
2021/01/31 12:14:41;;;;;;;11.80;7.90;;;3.70;70.00;;;;;;5061458;28;20044;-94
2021/01/31 12:17:07;;;;;;;10.70;7.25;;;5.30;66.80;;;;;;5077450;28;20033;-95
2021/01/31 12:19:35;;;;;;;13.43;8.80;;;6.60;63.10;;;;;;5046992;28;20045;-96
2021/01/31 12:22:00;;;;;;;11.68;8.48;;;7.20;60.00;;;;;;5048362;28;20064;-96
2021/01/31 12:24:34;;;;;;;13.52;8.32;;;7.60;58.00;;;;;;5054152;28;20037;-96
2021/01/31 12:26:59;;;;;;;11.98;8.60;;;7.40;56.40;;;;;;5046487;28;20057;-94
2021/01/31 12:29:27;;;;;;;10.55;6.93;;;6.60;56.50;;;;;;5062865;28;20028;-95
2021/01/31 12:31:53;;;;;;;10.27;7.30;;;5.20;59.00;;;;;;5050331;28;20025;-95
2021/01/31 12:34:28;;;;;;;10.88;6.85;;;4.30;61.40;;;;;;5057244;28;20167;-96
2021/01/31 12:36:57;;;;;;;9.80;6.47;;;3.70;64.10;;;;;;5065270;28;20037;-96
2021/01/31 12:39:26;;;;;;;9.50;6.68;;;3.50;66.00;;;;;;5056956;28;20036;-96
2021/01/31 12:41:52;;;;;;;8.38;6.30;;;4.60;66.30;;;;;;5053418;28;20030;-96
2021/01/31 12:44:19;;;;;;;13.18;8.40;;;5.80;63.40;;;;;;5059772;28;20038;-96
2021/01/31 12:46:45;;;;;;;9.95;6.53;;;6.10;59.60;;;;;;5033895;22;20053;-96
2021/01/31 12:49:16;;;;;;;10.45;7.13;;;6.30;60.10;;;;;;5003102;28;20041;-96
2021/01/31 12:51:52;;;;;;;12.00;8.57;;;6.70;59.70;;;;;;5003075;28;20110;-94
2021/01/31 12:54:30;;;;;;;10.95;7.57;;;6.80;58.30;;;;;;4964627;28;20042;-93
2021/01/31 12:56:55;;;;;;;11.27;7.03;;;6.50;58.00;;;;;;4978506;28;20041;-94
2021/01/31 12:59:24;;;;;;;11.18;7.25;;;6.20;58.10;;;;;;4998650;28;20027;-95
2021/01/31 13:01:51;;;;;;;9.93;6.82;;;5.80;58.70;;;;;;4999884;28;20026;-92
2021/01/31 13:04:16;;;;;;;9.50;6.40;;;5.00;59.70;;;;;;4980394;28;20053;-93
2021/01/31 13:06:42;;;;;;;10.82;7.28;;;4.70;60.40;;;;;;4993608;28;20117;-94
2021/01/31 13:09:07;;;;;;;10.52;7.32;;;4.40;60.90;;;;;;5042971;22;21080;-96
2021/01/31 13:11:39;;;;;;;10.68;7.32;;;4.30;61.50;;;;;;5008894;28;20121;-95
2021/01/31 13:14:05;;;;;;;8.68;5.95;;;4.10;61.30;;;;;;4986008;28;20038;-94
2021/01/31 13:16:31;;;;;;;9.18;6.25;;;4.00;62.70;;;;;;4982111;28;20034;-96
2021/01/31 13:18:57;;;;;;;12.15;7.85;;;3.80;63.00;;;;;;4992198;28;20023;-96
2021/01/31 13:21:29;;;;;;;10.02;7.00;;;3.50;63.30;;;;;;4983789;28;20033;-95
2021/01/31 13:23:54;;;;;;;11.85;7.85;;;3.40;64.10;;;;;;5000355;28;20018;-96
2021/01/31 13:26:20;;;;;;;11.35;7.90;;;3.30;64.10;;;;;;4977697;28;20030;-96
2021/01/31 13:28:45;;;;;;;12.25;8.77;;;3.10;64.10;;;;;;5005265;28;20018;-93
2021/01/31 13:31:12;;;;;;;10.70;7.20;;;3.00;64.60;;;;;;5006714;28;20046;-95
2021/01/31 13:36:13;;;;;;;12.13;7.57;;;2.90;64.90;;;;;;5529685;22;20057;-95
2021/01/31 13:38:39;;;;;;;10.38;7.15;;;2.90;65.00;;;;;;5010487;28;20585;-96
2021/01/31 13:41:05;;;;;;;8.52;6.00;;;2.80;65.50;;;;;;5004015;28;20030;-95
2021/01/31 13:43:39;;;;;;;8.75;5.82;;;2.90;66.60;;;;;;5008072;28;20033;-95
2021/01/31 13:46:04;;;;;;;10.20;6.60;;;2.90;66.20;;;;;;5010742;28;20022;-96
2021/01/31 13:48:30;;;;;;;10.23;7.57;;;2.80;66.00;;;;;;5017749;28;20582;-94
2021/01/31 13:50:56;;;;;;;9.00;6.43;;;2.70;66.00;;;;;;5012069;28;20044;-96
2021/01/31 13:53:44;;;;;;;12.30;8.18;;;2.80;66.40;;;;;;5034101;28;20029;-95
2021/01/31 14:01:33;;;;;;;13.73;8.77;;;2.70;67.10;;;;;;5036035;28;20042;-96
2021/01/31 14:04:00;;;;;;;12.85;9.00;;;2.70;67.10;;;;;;5034573;28;20052;-94
2021/01/31 14:10:14;;;;;;;14.35;9.55;;;2.70;67.60;;;;;;5059068;22;20044;-96
2021/01/31 14:12:42;;;;;;;14.52;9.15;;;2.80;67.60;;;;;;5002763;28;20046;-96
2021/01/31 14:15:18;;;;;;;14.40;9.52;;;2.70;67.80;;;;;;5027559;28;20046;-96
2021/01/31 14:17:44;;;;;;;14.73;9.50;;;2.70;68.00;;;;;;5020055;28;20045;-96
2021/01/31 14:20:22;;;;;;;14.00;9.50;;;2.70;68.10;;;;;;5017251;28;20036;-96
2021/01/31 14:28:41;;;;;;;11.32;7.95;;;2.70;68.00;;;;;;5038645;28;20037;-96
2021/01/31 14:31:16;;;;;;;13.55;9.45;;;2.60;68.30;;;;;;5013020;28;20017;-96
2021/01/31 14:33:45;;;;;;;12.25;8.73;;;2.60;68.30;;;;;;5022493;28;20092;-96
2021/01/31 14:36:14;;;;;;;12.05;8.23;;;2.60;68.70;;;;;;5013315;28;20057;-96
2021/01/31 14:38:50;;;;;;;12.55;8.52;;;2.70;68.80;;;;;;5028069;28;20057;-95
2021/01/31 14:41:32;;;;;;;10.70;7.05;;;2.80;68.70;;;;;;5026642;28;20109;-96
2021/01/31 14:46:40;;;;;;;13.85;9.63;;;2.80;68.70;;;;;;5888681;22;20110;-96
2021/01/31 14:49:06;;;;;;;13.70;9.20;;;2.70;68.60;;;;;;5020249;28;20036;-95
2021/01/31 14:51:47;;;;;;;12.25;7.88;;;2.70;68.60;;;;;;5014106;28;20005;-96
2021/01/31 14:54:13;;;;;;;13.48;8.77;;;2.70;68.90;;;;;;5012234;28;20114;-93
2021/01/31 14:56:51;;;;;;;12.98;9.10;;;2.70;68.80;;;;;;5004853;28;20025;-92
2021/01/31 14:59:42;;;;;;;14.38;9.90;;;2.60;68.90;;;;;;5010706;28;20034;-96
2021/01/31 15:02:51;;;;;;;13.35;8.65;;;2.60;68.90;;;;;;4956103;28;20054;-94
2021/01/31 15:06:07;;;;;;;11.85;7.93;;;2.50;69.40;;;;;;5008176;28;20056;-95
2021/01/31 15:08:33;;;;;;;14.00;9.38;;;2.50;69.80;;;;;;4916441;29;20115;-96
2021/01/31 15:12:04;;;;;;;11.35;7.95;;;2.50;69.90;;;;;;5023799;28;20124;-94
2021/01/31 15:14:43;;;;;;;15.15;9.73;;;2.40;70.20;;;;;;4970190;22;20050;-94
2021/01/31 15:54:29;;;;;;;16.17;10.70;;;2.00;72.90;;;;;;5703648;22;19922;-96
2021/01/31 15:59:50;;;;;;;15.55;9.98;;;1.90;73.30;;;;;;5022366;28;20105;-96
2021/01/31 16:02:16;;;;;;;13.55;9.25;;;1.90;73.40;;;;;;5002845;28;20056;-96
2021/01/31 16:04:42;;;;;;;18.55;12.55;;;1.90;73.60;;;;;;5035309;23;20073;-96
2021/01/31 16:23:33;;;;;;;21.30;14.15;;;1.50;75.00;;;;;;5190493;22;20058;-96
2021/01/31 16:33:49;;;;;;;15.80;10.38;;;1.40;75.60;;;;;;5194469;22;20053;-96
2021/01/31 16:36:15;;;;;;;14.85;10.32;;;1.40;75.60;;;;;;5033544;28;20045;-96
2021/01/31 16:38:54;;;;;;;12.93;8.90;;;1.30;75.60;;;;;;5043403;28;20034;-96
2021/01/31 16:41:22;;;;;;;19.85;12.82;;;1.40;75.70;;;;;;5044138;28;20051;-96
2021/01/31 16:43:54;;;;;;;14.13;9.05;;;1.40;75.60;;;;;;5416257;22;20076;-96
2021/01/31 16:46:19;;;;;;;15.85;10.30;;;1.30;75.60;;;;;;5014251;28;20041;-96
2021/01/31 16:48:45;;;;;;;15.38;11.10;;;1.30;75.60;;;;;;5211315;22;20052;-96
2021/01/31 16:51:17;;;;;;;16.33;10.90;;;1.30;75.50;;;;;;5049903;28;20020;-96
2021/01/31 16:53:42;;;;;;;16.80;12.13;;;1.50;75.70;;;;;;5035026;28;20009;-96
2021/01/31 16:56:27;;;;;;;17.15;10.90;;;1.30;76.10;;;;;;5031921;28;20052;-96
2021/01/31 17:12:14;;;;;;;17.38;12.23;;;1.20;75.30;;;;;;5015409;28;20495;-94
2021/01/31 17:17:36;;;;;;;18.75;12.77;;;1.20;75.10;;;;;;5576694;22;20041;-94
2021/01/31 17:20:09;;;;;;;18.00;11.82;;;1.20;75.10;;;;;;5019624;28;20053;-96
2021/01/31 17:22:38;;;;;;;18.98;12.55;;;1.20;75.00;;;;;;5028474;28;20028;-96
2021/01/31 17:25:08;;;;;;;18.92;12.30;;;1.10;75.00;;;;;;5028699;28;20048;-96
2021/01/31 17:27:38;;;;;;;16.75;11.45;;;1.10;75.00;;;;;;5010104;28;20022;-96